sensor_id;sensor_type;location;lat;lon;timestamp;temperature;humidity
3051;DHT22;1535;51.098;6.414;2023-05-10T00:02:24;13.40;99.90
3051;DHT22;1535;51.098;6.414;2023-05-10T00:04:52;13.40;99.90
3051;DHT22;1535;51.098;6.414;2023-05-10T00:07:19;13.30;99.90
3051;DHT22;1535;51.098;6.414;2023-05-10T00:09:45;13.40;99.90
3051;DHT22;1535;51.098;6.414;2023-05-10T00:12:13;13.30;99.90
3051;DHT22;1535;51.098;6.414;2023-05-10T00:14:41;13.20;99.90
3051;DHT22;1535;51.098;6.414;2023-05-10T00:17:08;13.10;99.90
3051;DHT22;1535;51.098;6.414;2023-05-10T00:19:35;13.10;99.90
3051;DHT22;1535;51.098;6.414;2023-05-10T00:22:03;13.00;99.90
3051;DHT22;1535;51.098;6.414;2023-05-10T00:24:29;13.00;99.90
3051;DHT22;1535;51.098;6.414;2023-05-10T00:26:56;13.00;99.90
3051;DHT22;1535;51.098;6.414;2023-05-10T00:29:25;13.00;99.90
3051;DHT22;1535;51.098;6.414;2023-05-10T00:31:53;12.90;99.90
3051;DHT22;1535;51.098;6.414;2023-05-10T00:34:20;13.00;99.90
3051;DHT22;1535;51.098;6.414;2023-05-10T00:36:48;12.90;99.90
3051;DHT22;1535;51.098;6.414;2023-05-10T00:39:15;12.90;99.90
3051;DHT22;1535;51.098;6.414;2023-05-10T00:41:43;12.90;99.90
3051;DHT22;1535;51.098;6.414;2023-05-10T00:44:10;13.00;99.90
3051;DHT22;1535;51.098;6.414;2023-05-10T00:46:38;13.00;99.90
3051;DHT22;1535;51.098;6.414;2023-05-10T00:49:07;13.00;99.90
3051;DHT22;1535;51.098;6.414;2023-05-10T00:51:34;13.00;99.90
3051;DHT22;1535;51.098;6.414;2023-05-10T00:54:03;13.00;99.90
3051;DHT22;1535;51.098;6.414;2023-05-10T00:56:30;13.00;99.90
3051;DHT22;1535;51.098;6.414;2023-05-10T00:58:57;13.10;99.90
3051;DHT22;1535;51.098;6.414;2023-05-10T01:01:25;13.10;99.90
3051;DHT22;1535;51.098;6.414;2023-05-10T01:03:54;13.10;99.90
3051;DHT22;1535;51.098;6.414;2023-05-10T01:06:22;13.10;99.90
3051;DHT22;1535;51.098;6.414;2023-05-10T01:08:49;13.10;99.90
3051;DHT22;1535;51.098;6.414;2023-05-10T01:11:17;13.10;99.90
3051;DHT22;1535;51.098;6.414;2023-05-10T01:13:55;13.20;99.90
3051;DHT22;1535;51.098;6.414;2023-05-10T01:16:23;13.20;99.90
3051;DHT22;1535;51.098;6.414;2023-05-10T01:18:52;13.20;99.90
3051;DHT22;1535;51.098;6.414;2023-05-10T01:21:27;13.20;99.90
3051;DHT22;1535;51.098;6.414;2023-05-10T01:24:12;13.20;99.90
3051;DHT22;1535;51.098;6.414;2023-05-10T01:27:08;13.20;99.90
3051;DHT22;1535;51.098;6.414;2023-05-10T01:32:43;13.30;99.90
3051;DHT22;1535;51.098;6.414;2023-05-10T01:35:16;13.20;99.90
3051;DHT22;1535;51.098;6.414;2023-05-10T01:37:49;13.20;99.90
3051;DHT22;1535;51.098;6.414;2023-05-10T01:40:21;13.20;99.90
3051;DHT22;1535;51.098;6.414;2023-05-10T01:42:53;13.20;99.90
3051;DHT22;1535;51.098;6.414;2023-05-10T01:45:30;13.20;99.90
3051;DHT22;1535;51.098;6.414;2023-05-10T01:48:05;13.20;99.90
3051;DHT22;1535;51.098;6.414;2023-05-10T01:50:35;13.20;99.90
3051;DHT22;1535;51.098;6.414;2023-05-10T01:53:05;13.10;99.90
3051;DHT22;1535;51.098;6.414;2023-05-10T01:55:34;13.10;99.90
3051;DHT22;1535;51.098;6.414;2023-05-10T01:58:05;13.10;99.90
3051;DHT22;1535;51.098;6.414;2023-05-10T02:00:34;13.10;99.90
3051;DHT22;1535;51.098;6.414;2023-05-10T02:03:06;13.20;99.90
3051;DHT22;1535;51.098;6.414;2023-05-10T02:05:35;13.10;99.90
3051;DHT22;1535;51.098;6.414;2023-05-10T02:08:06;13.10;99.90
3051;DHT22;1535;51.098;6.414;2023-05-10T02:10:34;13.10;99.90
3051;DHT22;1535;51.098;6.414;2023-05-10T02:13:02;13.20;99.90
3051;DHT22;1535;51.098;6.414;2023-05-10T02:15:32;13.20;99.90
3051;DHT22;1535;51.098;6.414;2023-05-10T02:18:00;13.20;99.90
3051;DHT22;1535;51.098;6.414;2023-05-10T02:20:31;13.20;99.90
3051;DHT22;1535;51.098;6.414;2023-05-10T02:22:59;13.20;99.90
3051;DHT22;1535;51.098;6.414;2023-05-10T02:25:29;13.30;99.90
3051;DHT22;1535;51.098;6.414;2023-05-10T02:27:57;13.30;99.90
3051;DHT22;1535;51.098;6.414;2023-05-10T02:30:27;13.20;99.90
3051;DHT22;1535;51.098;6.414;2023-05-10T02:32:55;13.20;99.90
3051;DHT22;1535;51.098;6.414;2023-05-10T02:35:23;13.20;99.90
3051;DHT22;1535;51.098;6.414;2023-05-10T02:37:54;13.20;99.90
3051;DHT22;1535;51.098;6.414;2023-05-10T02:40:22;13.20;99.90
3051;DHT22;1535;51.098;6.414;2023-05-10T02:42:50;13.20;99.90
3051;DHT22;1535;51.098;6.414;2023-05-10T02:45:21;13.30;99.90
3051;DHT22;1535;51.098;6.414;2023-05-10T02:47:50;13.30;99.90
3051;DHT22;1535;51.098;6.414;2023-05-10T02:50:18;13.20;99.90
3051;DHT22;1535;51.098;6.414;2023-05-10T02:52:47;13.20;99.90
3051;DHT22;1535;51.098;6.414;2023-05-10T02:55:21;13.30;99.90
3051;DHT22;1535;51.098;6.414;2023-05-10T02:57:51;13.30;99.90
3051;DHT22;1535;51.098;6.414;2023-05-10T03:00:20;13.40;99.90
3051;DHT22;1535;51.098;6.414;2023-05-10T03:02:47;13.40;99.90
3051;DHT22;1535;51.098;6.414;2023-05-10T03:05:13;13.40;99.90
3051;DHT22;1535;51.098;6.414;2023-05-10T03:07:40;13.40;99.90
3051;DHT22;1535;51.098;6.414;2023-05-10T03:10:09;13.40;99.90
3051;DHT22;1535;51.098;6.414;2023-05-10T03:12:49;13.40;99.90
3051;DHT22;1535;51.098;6.414;2023-05-10T03:15:24;13.40;99.90
3051;DHT22;1535;51.098;6.414;2023-05-10T03:17:56;13.40;99.90
3051;DHT22;1535;51.098;6.414;2023-05-10T03:20:31;13.40;99.90
3051;DHT22;1535;51.098;6.414;2023-05-10T03:23:04;13.40;99.90
3051;DHT22;1535;51.098;6.414;2023-05-10T03:25:35;13.40;99.90
3051;DHT22;1535;51.098;6.414;2023-05-10T03:28:04;13.40;99.90
3051;DHT22;1535;51.098;6.414;2023-05-10T03:30:32;13.40;99.90
3051;DHT22;1535;51.098;6.414;2023-05-10T03:33:04;13.40;99.90
3051;DHT22;1535;51.098;6.414;2023-05-10T03:35:32;13.40;99.90
3051;DHT22;1535;51.098;6.414;2023-05-10T03:37:59;13.40;99.90
3051;DHT22;1535;51.098;6.414;2023-05-10T03:40:27;13.40;99.90
3051;DHT22;1535;51.098;6.414;2023-05-10T03:42:57;13.40;99.90
3051;DHT22;1535;51.098;6.414;2023-05-10T03:45:25;13.40;99.90
3051;DHT22;1535;51.098;6.414;2023-05-10T03:47:52;13.40;99.90
3051;DHT22;1535;51.098;6.414;2023-05-10T03:50:20;13.40;99.90
3051;DHT22;1535;51.098;6.414;2023-05-10T03:52:48;13.40;99.90
3051;DHT22;1535;51.098;6.414;2023-05-10T03:55:15;13.30;99.90
3051;DHT22;1535;51.098;6.414;2023-05-10T03:57:43;13.30;99.90
3051;DHT22;1535;51.098;6.414;2023-05-10T04:00:11;13.30;99.90
3051;DHT22;1535;51.098;6.414;2023-05-10T04:02:39;13.30;99.90
3051;DHT22;1535;51.098;6.414;2023-05-10T04:05:07;13.30;99.90
3051;DHT22;1535;51.098;6.414;2023-05-10T04:07:35;13.20;99.90
3051;DHT22;1535;51.098;6.414;2023-05-10T04:10:02;13.20;99.90
3051;DHT22;1535;51.098;6.414;2023-05-10T04:12:29;13.20;99.90
3051;DHT22;1535;51.098;6.414;2023-05-10T04:14:56;13.00;99.90
3051;DHT22;1535;51.098;6.414;2023-05-10T04:17:25;13.00;99.90
3051;DHT22;1535;51.098;6.414;2023-05-10T04:19:53;13.10;99.90
3051;DHT22;1535;51.098;6.414;2023-05-10T04:22:20;13.00;99.90
3051;DHT22;1535;51.098;6.414;2023-05-10T04:24:47;13.00;99.90
3051;DHT22;1535;51.098;6.414;2023-05-10T04:27:14;13.00;99.90
3051;DHT22;1535;51.098;6.414;2023-05-10T04:29:41;13.00;99.90
3051;DHT22;1535;51.098;6.414;2023-05-10T04:32:09;13.00;99.90
3051;DHT22;1535;51.098;6.414;2023-05-10T04:34:36;13.00;99.90
3051;DHT22;1535;51.098;6.414;2023-05-10T04:37:04;13.00;99.90
3051;DHT22;1535;51.098;6.414;2023-05-10T04:39:33;13.00;99.90
3051;DHT22;1535;51.098;6.414;2023-05-10T04:42:00;13.00;99.90
3051;DHT22;1535;51.098;6.414;2023-05-10T04:44:28;13.00;99.90
3051;DHT22;1535;51.098;6.414;2023-05-10T04:46:55;13.10;99.90
3051;DHT22;1535;51.098;6.414;2023-05-10T04:49:23;13.10;99.90
3051;DHT22;1535;51.098;6.414;2023-05-10T04:51:50;13.10;99.90
3051;DHT22;1535;51.098;6.414;2023-05-10T04:54:18;13.20;99.90
3051;DHT22;1535;51.098;6.414;2023-05-10T04:56:45;13.10;99.90
3051;DHT22;1535;51.098;6.414;2023-05-10T04:59:12;13.20;99.90
3051;DHT22;1535;51.098;6.414;2023-05-10T05:01:39;13.20;99.90
3051;DHT22;1535;51.098;6.414;2023-05-10T05:04:06;13.20;99.90
3051;DHT22;1535;51.098;6.414;2023-05-10T05:06:33;13.30;99.90
3051;DHT22;1535;51.098;6.414;2023-05-10T05:09:00;13.30;99.90
3051;DHT22;1535;51.098;6.414;2023-05-10T05:11:28;13.30;99.90
3051;DHT22;1535;51.098;6.414;2023-05-10T05:13:55;13.30;99.90
3051;DHT22;1535;51.098;6.414;2023-05-10T05:16:25;13.30;99.90
3051;DHT22;1535;51.098;6.414;2023-05-10T05:18:52;13.20;99.90
3051;DHT22;1535;51.098;6.414;2023-05-10T05:21:19;13.30;99.90
3051;DHT22;1535;51.098;6.414;2023-05-10T05:23:47;13.20;99.90
3051;DHT22;1535;51.098;6.414;2023-05-10T05:26:14;13.20;99.90
3051;DHT22;1535;51.098;6.414;2023-05-10T05:28:43;13.20;99.90
3051;DHT22;1535;51.098;6.414;2023-05-10T05:31:10;13.10;99.90
3051;DHT22;1535;51.098;6.414;2023-05-10T05:33:37;13.20;99.90
3051;DHT22;1535;51.098;6.414;2023-05-10T05:36:05;13.20;99.90
3051;DHT22;1535;51.098;6.414;2023-05-10T05:38:32;13.20;99.90
3051;DHT22;1535;51.098;6.414;2023-05-10T05:41:00;13.10;99.90
3051;DHT22;1535;51.098;6.414;2023-05-10T05:43:28;13.10;99.90
3051;DHT22;1535;51.098;6.414;2023-05-10T05:45:57;13.10;99.90
3051;DHT22;1535;51.098;6.414;2023-05-10T05:48:24;13.10;99.90
3051;DHT22;1535;51.098;6.414;2023-05-10T05:50:54;13.00;99.90
3051;DHT22;1535;51.098;6.414;2023-05-10T05:53:22;12.90;99.90
3051;DHT22;1535;51.098;6.414;2023-05-10T05:55:52;13.00;99.90
3051;DHT22;1535;51.098;6.414;2023-05-10T05:58:19;13.10;99.90
3051;DHT22;1535;51.098;6.414;2023-05-10T06:00:47;13.10;99.90
3051;DHT22;1535;51.098;6.414;2023-05-10T06:03:15;13.10;99.90
3051;DHT22;1535;51.098;6.414;2023-05-10T06:05:43;13.10;99.90
3051;DHT22;1535;51.098;6.414;2023-05-10T06:08:10;13.20;99.90
3051;DHT22;1535;51.098;6.414;2023-05-10T06:10:37;13.20;99.90
3051;DHT22;1535;51.098;6.414;2023-05-10T06:13:05;13.30;99.90
3051;DHT22;1535;51.098;6.414;2023-05-10T06:15:32;13.40;99.90
3051;DHT22;1535;51.098;6.414;2023-05-10T06:17:59;13.30;99.90
3051;DHT22;1535;51.098;6.414;2023-05-10T06:20:28;13.40;99.90
3051;DHT22;1535;51.098;6.414;2023-05-10T06:22:57;13.50;99.90
3051;DHT22;1535;51.098;6.414;2023-05-10T06:25:24;13.50;99.90
3051;DHT22;1535;51.098;6.414;2023-05-10T06:27:51;13.50;99.90
3051;DHT22;1535;51.098;6.414;2023-05-10T06:30:23;13.60;99.90
3051;DHT22;1535;51.098;6.414;2023-05-10T06:32:53;13.60;99.90
3051;DHT22;1535;51.098;6.414;2023-05-10T06:35:20;13.70;99.90
3051;DHT22;1535;51.098;6.414;2023-05-10T06:37:50;13.60;99.90
3051;DHT22;1535;51.098;6.414;2023-05-10T06:40:17;13.70;99.90
3051;DHT22;1535;51.098;6.414;2023-05-10T06:42:45;13.60;99.90
3051;DHT22;1535;51.098;6.414;2023-05-10T06:45:12;13.60;99.90
3051;DHT22;1535;51.098;6.414;2023-05-10T06:47:39;13.60;99.90
3051;DHT22;1535;51.098;6.414;2023-05-10T06:50:06;13.60;99.90
3051;DHT22;1535;51.098;6.414;2023-05-10T06:52:33;13.70;99.90
3051;DHT22;1535;51.098;6.414;2023-05-10T06:55:02;13.60;99.90
3051;DHT22;1535;51.098;6.414;2023-05-10T06:57:30;13.60;99.90
3051;DHT22;1535;51.098;6.414;2023-05-10T06:59:57;13.60;99.90
3051;DHT22;1535;51.098;6.414;2023-05-10T07:02:24;13.50;99.90
3051;DHT22;1535;51.098;6.414;2023-05-10T07:04:52;13.50;99.90
3051;DHT22;1535;51.098;6.414;2023-05-10T07:07:19;13.60;99.90
3051;DHT22;1535;51.098;6.414;2023-05-10T07:09:47;13.60;99.90
3051;DHT22;1535;51.098;6.414;2023-05-10T07:12:16;13.60;99.90
3051;DHT22;1535;51.098;6.414;2023-05-10T07:14:43;13.60;99.90
3051;DHT22;1535;51.098;6.414;2023-05-10T07:17:10;13.80;99.90
3051;DHT22;1535;51.098;6.414;2023-05-10T07:19:37;14.00;99.90
3051;DHT22;1535;51.098;6.414;2023-05-10T07:22:04;14.20;99.90
3051;DHT22;1535;51.098;6.414;2023-05-10T07:24:32;14.30;99.90
3051;DHT22;1535;51.098;6.414;2023-05-10T07:26:59;14.30;99.90
3051;DHT22;1535;51.098;6.414;2023-05-10T07:29:28;14.50;99.90
3051;DHT22;1535;51.098;6.414;2023-05-10T07:31:55;14.60;99.90
3051;DHT22;1535;51.098;6.414;2023-05-10T07:34:22;14.70;99.90
3051;DHT22;1535;51.098;6.414;2023-05-10T07:36:49;15.00;99.90
3051;DHT22;1535;51.098;6.414;2023-05-10T07:39:16;15.20;99.90
3051;DHT22;1535;51.098;6.414;2023-05-10T07:41:43;15.70;99.90
3051;DHT22;1535;51.098;6.414;2023-05-10T07:44:10;16.10;99.90
3051;DHT22;1535;51.098;6.414;2023-05-10T07:46:38;16.10;99.90
3051;DHT22;1535;51.098;6.414;2023-05-10T07:49:05;16.00;99.90
3051;DHT22;1535;51.098;6.414;2023-05-10T07:51:33;16.20;99.90
3051;DHT22;1535;51.098;6.414;2023-05-10T07:54:00;16.10;99.90
3051;DHT22;1535;51.098;6.414;2023-05-10T07:56:29;16.00;99.90
3051;DHT22;1535;51.098;6.414;2023-05-10T07:58:58;16.10;99.90
3051;DHT22;1535;51.098;6.414;2023-05-10T08:01:26;16.10;99.90
3051;DHT22;1535;51.098;6.414;2023-05-10T08:03:54;16.10;99.90
3051;DHT22;1535;51.098;6.414;2023-05-10T08:06:21;16.00;99.90
3051;DHT22;1535;51.098;6.414;2023-05-10T08:08:48;16.00;99.90
3051;DHT22;1535;51.098;6.414;2023-05-10T08:11:16;16.00;99.90
3051;DHT22;1535;51.098;6.414;2023-05-10T08:13:43;16.00;99.90
3051;DHT22;1535;51.098;6.414;2023-05-10T08:16:09;15.90;99.90
3051;DHT22;1535;51.098;6.414;2023-05-10T08:18:37;16.00;99.90
3051;DHT22;1535;51.098;6.414;2023-05-10T08:21:05;16.00;99.90
3051;DHT22;1535;51.098;6.414;2023-05-10T08:23:32;15.90;99.90
3051;DHT22;1535;51.098;6.414;2023-05-10T08:25:59;15.90;99.90
3051;DHT22;1535;51.098;6.414;2023-05-10T08:28:27;16.00;99.90
3051;DHT22;1535;51.098;6.414;2023-05-10T08:30:55;16.00;99.90
3051;DHT22;1535;51.098;6.414;2023-05-10T08:33:22;15.90;99.90
3051;DHT22;1535;51.098;6.414;2023-05-10T08:35:49;15.70;99.90
3051;DHT22;1535;51.098;6.414;2023-05-10T08:38:18;15.80;99.90
3051;DHT22;1535;51.098;6.414;2023-05-10T08:40:45;15.70;99.90
3051;DHT22;1535;51.098;6.414;2023-05-10T08:43:16;15.70;99.90
3051;DHT22;1535;51.098;6.414;2023-05-10T08:45:44;15.70;99.90
3051;DHT22;1535;51.098;6.414;2023-05-10T08:48:12;15.60;99.90
3051;DHT22;1535;51.098;6.414;2023-05-10T08:50:41;15.50;99.90
3051;DHT22;1535;51.098;6.414;2023-05-10T08:53:10;15.70;99.90
3051;DHT22;1535;51.098;6.414;2023-05-10T08:55:40;15.90;99.90
3051;DHT22;1535;51.098;6.414;2023-05-10T08:58:09;15.90;99.90
3051;DHT22;1535;51.098;6.414;2023-05-10T09:00:36;16.10;99.90
3051;DHT22;1535;51.098;6.414;2023-05-10T09:03:04;16.10;99.90
3051;DHT22;1535;51.098;6.414;2023-05-10T09:05:32;16.10;99.90
3051;DHT22;1535;51.098;6.414;2023-05-10T09:07:59;16.50;99.90
3051;DHT22;1535;51.098;6.414;2023-05-10T09:10:27;16.40;99.90
3051;DHT22;1535;51.098;6.414;2023-05-10T09:12:57;16.60;99.90
3051;DHT22;1535;51.098;6.414;2023-05-10T09:15:24;16.80;99.90
3051;DHT22;1535;51.098;6.414;2023-05-10T09:17:51;16.80;99.90
3051;DHT22;1535;51.098;6.414;2023-05-10T09:20:18;17.00;99.90
3051;DHT22;1535;51.098;6.414;2023-05-10T09:22:45;16.70;99.90
3051;DHT22;1535;51.098;6.414;2023-05-10T09:25:13;16.50;99.90
3051;DHT22;1535;51.098;6.414;2023-05-10T09:27:41;16.50;99.90
3051;DHT22;1535;51.098;6.414;2023-05-10T09:30:10;16.70;99.90
3051;DHT22;1535;51.098;6.414;2023-05-10T09:32:38;16.60;99.90
3051;DHT22;1535;51.098;6.414;2023-05-10T09:35:10;16.70;99.90
3051;DHT22;1535;51.098;6.414;2023-05-10T09:37:39;16.80;99.90
3051;DHT22;1535;51.098;6.414;2023-05-10T09:40:11;16.90;99.90
3051;DHT22;1535;51.098;6.414;2023-05-10T09:42:38;16.60;99.90
3051;DHT22;1535;51.098;6.414;2023-05-10T09:45:06;16.80;99.90
3051;DHT22;1535;51.098;6.414;2023-05-10T09:47:35;16.80;99.90
3051;DHT22;1535;51.098;6.414;2023-05-10T09:50:03;16.90;99.90
3051;DHT22;1535;51.098;6.414;2023-05-10T09:52:31;17.00;99.90
3051;DHT22;1535;51.098;6.414;2023-05-10T09:55:13;17.30;99.90
3051;DHT22;1535;51.098;6.414;2023-05-10T09:57:40;17.70;99.90
3051;DHT22;1535;51.098;6.414;2023-05-10T10:00:08;17.30;99.90
3051;DHT22;1535;51.098;6.414;2023-05-10T10:02:37;17.10;99.90
3051;DHT22;1535;51.098;6.414;2023-05-10T10:05:06;17.10;99.90
3051;DHT22;1535;51.098;6.414;2023-05-10T10:07:34;17.20;99.90
3051;DHT22;1535;51.098;6.414;2023-05-10T10:10:02;17.60;99.90
3051;DHT22;1535;51.098;6.414;2023-05-10T10:12:30;17.40;99.90
3051;DHT22;1535;51.098;6.414;2023-05-10T10:14:59;17.30;99.90
3051;DHT22;1535;51.098;6.414;2023-05-10T10:17:27;17.20;99.90
3051;DHT22;1535;51.098;6.414;2023-05-10T10:19:57;17.40;99.90
3051;DHT22;1535;51.098;6.414;2023-05-10T10:22:24;17.20;99.90
3051;DHT22;1535;51.098;6.414;2023-05-10T10:24:51;16.90;99.90
3051;DHT22;1535;51.098;6.414;2023-05-10T10:27:24;17.20;99.90
3051;DHT22;1535;51.098;6.414;2023-05-10T10:30:02;17.20;99.90
3051;DHT22;1535;51.098;6.414;2023-05-10T10:32:38;17.10;99.90
3051;DHT22;1535;51.098;6.414;2023-05-10T10:35:10;17.10;99.90
3051;DHT22;1535;51.098;6.414;2023-05-10T10:37:44;16.70;99.90
3051;DHT22;1535;51.098;6.414;2023-05-10T10:40:23;16.90;99.90
3051;DHT22;1535;51.098;6.414;2023-05-10T10:42:50;16.90;99.90
3051;DHT22;1535;51.098;6.414;2023-05-10T10:45:17;16.80;99.90
3051;DHT22;1535;51.098;6.414;2023-05-10T10:47:45;16.90;99.90
3051;DHT22;1535;51.098;6.414;2023-05-10T10:50:13;17.20;99.90
3051;DHT22;1535;51.098;6.414;2023-05-10T10:52:42;17.50;99.90
3051;DHT22;1535;51.098;6.414;2023-05-10T10:55:10;17.80;99.90
3051;DHT22;1535;51.098;6.414;2023-05-10T10:57:46;17.90;99.90
3051;DHT22;1535;51.098;6.414;2023-05-10T11:00:27;17.80;99.90
3051;DHT22;1535;51.098;6.414;2023-05-10T11:02:57;17.60;99.90
3051;DHT22;1535;51.098;6.414;2023-05-10T11:05:35;17.50;99.90
3051;DHT22;1535;51.098;6.414;2023-05-10T11:08:11;17.20;99.90
3051;DHT22;1535;51.098;6.414;2023-05-10T11:10:40;16.70;99.90
3051;DHT22;1535;51.098;6.414;2023-05-10T11:13:08;16.70;99.90
3051;DHT22;1535;51.098;6.414;2023-05-10T11:15:37;16.60;99.90
3051;DHT22;1535;51.098;6.414;2023-05-10T11:18:18;16.80;99.90
3051;DHT22;1535;51.098;6.414;2023-05-10T11:20:50;16.90;99.90
3051;DHT22;1535;51.098;6.414;2023-05-10T11:23:17;17.10;99.90
3051;DHT22;1535;51.098;6.414;2023-05-10T11:25:48;16.90;99.90
3051;DHT22;1535;51.098;6.414;2023-05-10T11:28:17;16.70;99.90
3051;DHT22;1535;51.098;6.414;2023-05-10T11:30:44;16.80;99.90
3051;DHT22;1535;51.098;6.414;2023-05-10T11:33:15;17.10;99.90
3051;DHT22;1535;51.098;6.414;2023-05-10T11:35:42;17.20;99.90
3051;DHT22;1535;51.098;6.414;2023-05-10T11:38:12;17.30;99.90
3051;DHT22;1535;51.098;6.414;2023-05-10T11:40:40;17.40;99.90
3051;DHT22;1535;51.098;6.414;2023-05-10T11:43:08;17.70;99.90
3051;DHT22;1535;51.098;6.414;2023-05-10T11:45:36;17.90;99.90
3051;DHT22;1535;51.098;6.414;2023-05-10T11:48:03;18.30;99.90
3051;DHT22;1535;51.098;6.414;2023-05-10T11:50:30;18.40;99.90
3051;DHT22;1535;51.098;6.414;2023-05-10T11:52:58;18.30;99.90
3051;DHT22;1535;51.098;6.414;2023-05-10T11:55:26;18.30;99.90
3051;DHT22;1535;51.098;6.414;2023-05-10T11:57:59;18.40;99.90
3051;DHT22;1535;51.098;6.414;2023-05-10T12:00:26;18.40;99.90
3051;DHT22;1535;51.098;6.414;2023-05-10T12:02:54;18.80;99.90
3051;DHT22;1535;51.098;6.414;2023-05-10T12:05:21;18.90;99.90
3051;DHT22;1535;51.098;6.414;2023-05-10T12:07:49;18.50;99.90
3051;DHT22;1535;51.098;6.414;2023-05-10T12:10:15;18.10;99.90
3051;DHT22;1535;51.098;6.414;2023-05-10T12:12:45;18.10;99.90
3051;DHT22;1535;51.098;6.414;2023-05-10T12:15:17;17.80;99.90
3051;DHT22;1535;51.098;6.414;2023-05-10T12:17:44;17.40;99.90
3051;DHT22;1535;51.098;6.414;2023-05-10T12:20:18;17.10;99.90
3051;DHT22;1535;51.098;6.414;2023-05-10T12:22:47;16.60;99.90
3051;DHT22;1535;51.098;6.414;2023-05-10T12:25:14;16.50;99.90
3051;DHT22;1535;51.098;6.414;2023-05-10T12:27:49;16.40;99.90
3051;DHT22;1535;51.098;6.414;2023-05-10T12:30:21;16.50;99.90
3051;DHT22;1535;51.098;6.414;2023-05-10T12:32:48;16.50;99.90
3051;DHT22;1535;51.098;6.414;2023-05-10T12:35:15;16.40;99.90
3051;DHT22;1535;51.098;6.414;2023-05-10T12:37:42;16.40;99.90
3051;DHT22;1535;51.098;6.414;2023-05-10T12:40:11;16.50;99.90
3051;DHT22;1535;51.098;6.414;2023-05-10T12:42:38;16.70;99.90
3051;DHT22;1535;51.098;6.414;2023-05-10T12:45:08;16.90;99.90
3051;DHT22;1535;51.098;6.414;2023-05-10T12:47:35;17.20;99.90
3051;DHT22;1535;51.098;6.414;2023-05-10T12:50:02;17.80;99.90
3051;DHT22;1535;51.098;6.414;2023-05-10T12:52:30;18.20;99.90
3051;DHT22;1535;51.098;6.414;2023-05-10T12:54:58;18.30;99.90
3051;DHT22;1535;51.098;6.414;2023-05-10T12:57:25;18.50;99.90
3051;DHT22;1535;51.098;6.414;2023-05-10T12:59:52;18.80;99.90
3051;DHT22;1535;51.098;6.414;2023-05-10T13:02:20;18.80;99.90
3051;DHT22;1535;51.098;6.414;2023-05-10T13:04:49;18.40;99.90
3051;DHT22;1535;51.098;6.414;2023-05-10T13:07:16;18.70;99.90
3051;DHT22;1535;51.098;6.414;2023-05-10T13:09:43;18.70;99.90
3051;DHT22;1535;51.098;6.414;2023-05-10T13:12:09;19.00;99.90
3051;DHT22;1535;51.098;6.414;2023-05-10T13:14:36;19.40;99.90
3051;DHT22;1535;51.098;6.414;2023-05-10T13:17:06;19.80;99.90
3051;DHT22;1535;51.098;6.414;2023-05-10T13:19:34;20.00;99.90
3051;DHT22;1535;51.098;6.414;2023-05-10T13:22:01;20.40;99.90
3051;DHT22;1535;51.098;6.414;2023-05-10T13:24:28;20.70;99.90
3051;DHT22;1535;51.098;6.414;2023-05-10T13:26:54;20.80;99.90
3051;DHT22;1535;51.098;6.414;2023-05-10T13:29:21;20.90;99.90
3051;DHT22;1535;51.098;6.414;2023-05-10T13:31:49;20.60;99.90
3051;DHT22;1535;51.098;6.414;2023-05-10T13:34:16;20.00;99.90
3051;DHT22;1535;51.098;6.414;2023-05-10T13:36:47;19.90;99.90
3051;DHT22;1535;51.098;6.414;2023-05-10T13:39:14;20.00;99.90
3051;DHT22;1535;51.098;6.414;2023-05-10T13:41:42;19.90;99.90
3051;DHT22;1535;51.098;6.414;2023-05-10T13:44:11;20.00;99.90
3051;DHT22;1535;51.098;6.414;2023-05-10T13:46:39;20.40;99.90
3051;DHT22;1535;51.098;6.414;2023-05-10T13:49:08;20.70;99.90
3051;DHT22;1535;51.098;6.414;2023-05-10T13:51:35;20.50;99.90
3051;DHT22;1535;51.098;6.414;2023-05-10T13:54:03;20.30;99.90
3051;DHT22;1535;51.098;6.414;2023-05-10T13:56:30;20.40;99.90
3051;DHT22;1535;51.098;6.414;2023-05-10T13:58:57;20.50;99.90
3051;DHT22;1535;51.098;6.414;2023-05-10T14:01:24;20.70;99.90
3051;DHT22;1535;51.098;6.414;2023-05-10T14:03:51;20.90;99.90
3051;DHT22;1535;51.098;6.414;2023-05-10T14:06:18;21.00;99.90
3051;DHT22;1535;51.098;6.414;2023-05-10T14:08:46;21.00;99.90
3051;DHT22;1535;51.098;6.414;2023-05-10T14:11:14;21.20;99.90
3051;DHT22;1535;51.098;6.414;2023-05-10T14:13:41;21.10;99.90
3051;DHT22;1535;51.098;6.414;2023-05-10T14:16:09;21.20;99.90
3051;DHT22;1535;51.098;6.414;2023-05-10T14:18:37;21.30;99.90
3051;DHT22;1535;51.098;6.414;2023-05-10T14:21:03;21.70;99.90
3051;DHT22;1535;51.098;6.414;2023-05-10T14:23:31;22.10;99.90
3051;DHT22;1535;51.098;6.414;2023-05-10T14:25:58;22.50;99.90
3051;DHT22;1535;51.098;6.414;2023-05-10T14:28:26;23.40;99.90
3051;DHT22;1535;51.098;6.414;2023-05-10T14:30:53;23.80;99.90
3051;DHT22;1535;51.098;6.414;2023-05-10T14:33:19;23.30;99.90
3051;DHT22;1535;51.098;6.414;2023-05-10T14:35:47;23.30;99.90
3051;DHT22;1535;51.098;6.414;2023-05-10T14:38:14;23.30;99.90
3051;DHT22;1535;51.098;6.414;2023-05-10T14:40:41;23.20;99.90
3051;DHT22;1535;51.098;6.414;2023-05-10T14:43:09;22.90;99.90
3051;DHT22;1535;51.098;6.414;2023-05-10T14:45:38;23.20;99.90
3051;DHT22;1535;51.098;6.414;2023-05-10T14:48:07;24.00;99.90
3051;DHT22;1535;51.098;6.414;2023-05-10T14:50:37;24.20;99.90
3051;DHT22;1535;51.098;6.414;2023-05-10T14:53:05;23.60;99.90
3051;DHT22;1535;51.098;6.414;2023-05-10T14:55:32;23.20;99.90
3051;DHT22;1535;51.098;6.414;2023-05-10T14:58:00;22.50;99.90
3051;DHT22;1535;51.098;6.414;2023-05-10T15:00:28;21.90;99.90
3051;DHT22;1535;51.098;6.414;2023-05-10T15:02:57;21.80;99.90
3051;DHT22;1535;51.098;6.414;2023-05-10T15:05:24;21.80;99.90
3051;DHT22;1535;51.098;6.414;2023-05-10T15:07:51;21.40;99.90
3051;DHT22;1535;51.098;6.414;2023-05-10T15:10:18;20.90;99.90
3051;DHT22;1535;51.098;6.414;2023-05-10T15:12:45;20.60;99.90
3051;DHT22;1535;51.098;6.414;2023-05-10T15:15:12;20.50;99.90
3051;DHT22;1535;51.098;6.414;2023-05-10T15:17:39;20.40;99.90
3051;DHT22;1535;51.098;6.414;2023-05-10T15:20:08;20.30;99.90
3051;DHT22;1535;51.098;6.414;2023-05-10T15:22:35;19.90;99.90
3051;DHT22;1535;51.098;6.414;2023-05-10T15:25:02;19.90;99.90
3051;DHT22;1535;51.098;6.414;2023-05-10T15:27:29;19.80;99.90
3051;DHT22;1535;51.098;6.414;2023-05-10T15:29:56;19.90;99.90
3051;DHT22;1535;51.098;6.414;2023-05-10T15:32:25;19.80;99.90
3051;DHT22;1535;51.098;6.414;2023-05-10T15:34:58;19.80;99.90
3051;DHT22;1535;51.098;6.414;2023-05-10T15:37:33;19.50;99.90
3051;DHT22;1535;51.098;6.414;2023-05-10T15:40:06;19.30;99.90
3051;DHT22;1535;51.098;6.414;2023-05-10T15:42:37;19.40;99.90
3051;DHT22;1535;51.098;6.414;2023-05-10T15:45:09;19.30;99.90
3051;DHT22;1535;51.098;6.414;2023-05-10T15:47:40;19.40;99.90
3051;DHT22;1535;51.098;6.414;2023-05-10T15:50:10;19.40;99.90
3051;DHT22;1535;51.098;6.414;2023-05-10T15:52:39;19.40;99.90
3051;DHT22;1535;51.098;6.414;2023-05-10T15:55:07;19.30;99.90
3051;DHT22;1535;51.098;6.414;2023-05-10T15:57:37;19.40;99.90
3051;DHT22;1535;51.098;6.414;2023-05-10T16:00:05;19.40;99.90
3051;DHT22;1535;51.098;6.414;2023-05-10T16:02:33;19.30;99.90
3051;DHT22;1535;51.098;6.414;2023-05-10T16:04:59;19.10;99.90
3051;DHT22;1535;51.098;6.414;2023-05-10T16:07:26;19.10;99.90
3051;DHT22;1535;51.098;6.414;2023-05-10T16:09:54;18.90;99.90
3051;DHT22;1535;51.098;6.414;2023-05-10T16:12:21;18.90;99.90
3051;DHT22;1535;51.098;6.414;2023-05-10T16:14:48;18.80;99.90